Terminal Aerodrome Forecast
Issued by NWS Grand Forks, ND

Home | Current Version | Previous Version | Graphics & Text | Print | Product List | Glossary On
Versions: 1 2 3 4 5 6 7 8 9 10 11 12 13 14
000
FTUS43 KFGF 281700
TAFFAR
TAF
KFAR 281720Z 2818/2918 34008KT P6SM BKN060
     FM290100 VRB05KT P6SM SKC
     FM291600 34007KT P6SM SCT050=

USA.gov is the U.S. government's official web portal to all federal, state and local government web resources and services.